sensor_id;sensor_type;location;lat;lon;timestamp;pressure;altitude;pressure_sealevel;temperature
7882;BMP180;3986;41.884;23.466;2022-08-21T00:02:14;91591.00;;;18.40
7882;BMP180;3986;41.884;23.466;2022-08-21T00:04:41;91578.00;;;18.50
7882;BMP180;3986;41.884;23.466;2022-08-21T00:07:08;91596.00;;;18.50
7882;BMP180;3986;41.884;23.466;2022-08-21T00:09:35;91601.00;;;18.30
7882;BMP180;3986;41.884;23.466;2022-08-21T00:12:03;91604.00;;;18.40
7882;BMP180;3986;41.884;23.466;2022-08-21T00:14:32;91604.00;;;18.50
7882;BMP180;3986;41.884;23.466;2022-08-21T00:16:59;91604.00;;;18.20
7882;BMP180;3986;41.884;23.466;2022-08-21T00:19:26;91606.00;;;18.60
7882;BMP180;3986;41.884;23.466;2022-08-21T00:21:54;91586.00;;;18.70
7882;BMP180;3986;41.884;23.466;2022-08-21T00:24:22;91566.00;;;18.40
7882;BMP180;3986;41.884;23.466;2022-08-21T00:26:49;91608.00;;;18.60
7882;BMP180;3986;41.884;23.466;2022-08-21T00:29:16;91609.00;;;18.80
7882;BMP180;3986;41.884;23.466;2022-08-21T00:31:45;91598.00;;;18.60
7882;BMP180;3986;41.884;23.466;2022-08-21T00:34:13;91615.00;;;18.80
7882;BMP180;3986;41.884;23.466;2022-08-21T00:36:40;91610.00;;;18.60
7882;BMP180;3986;41.884;23.466;2022-08-21T00:39:08;91616.00;;;18.30
7882;BMP180;3986;41.884;23.466;2022-08-21T00:41:36;91619.00;;;18.20
7882;BMP180;3986;41.884;23.466;2022-08-21T00:44:05;91585.00;;;18.10
7882;BMP180;3986;41.884;23.466;2022-08-21T00:46:32;91606.00;;;18.30
7882;BMP180;3986;41.884;23.466;2022-08-21T00:49:00;91618.00;;;18.20
7882;BMP180;3986;41.884;23.466;2022-08-21T00:51:33;91618.00;;;18.00
7882;BMP180;3986;41.884;23.466;2022-08-21T00:54:03;91625.00;;;17.80
7882;BMP180;3986;41.884;23.466;2022-08-21T00:56:30;91637.00;;;17.80
7882;BMP180;3986;41.884;23.466;2022-08-21T00:58:57;91645.00;;;18.10
7882;BMP180;3986;41.884;23.466;2022-08-21T01:01:25;91636.00;;;18.10
7882;BMP180;3986;41.884;23.466;2022-08-21T01:03:52;91645.00;;;17.80
7882;BMP180;3986;41.884;23.466;2022-08-21T01:06:20;91649.00;;;17.80
7882;BMP180;3986;41.884;23.466;2022-08-21T01:08:47;91649.00;;;17.70
7882;BMP180;3986;41.884;23.466;2022-08-21T01:11:15;91641.00;;;17.90
7882;BMP180;3986;41.884;23.466;2022-08-21T01:13:43;91664.00;;;17.90
7882;BMP180;3986;41.884;23.466;2022-08-21T01:16:13;91607.00;;;17.80
7882;BMP180;3986;41.884;23.466;2022-08-21T01:18:42;91635.00;;;17.60
7882;BMP180;3986;41.884;23.466;2022-08-21T01:21:14;91609.00;;;18.00
7882;BMP180;3986;41.884;23.466;2022-08-21T01:23:43;91630.00;;;17.90
7882;BMP180;3986;41.884;23.466;2022-08-21T01:26:13;91621.00;;;18.00
7882;BMP180;3986;41.884;23.466;2022-08-21T01:28:46;91622.00;;;17.30
7882;BMP180;3986;41.884;23.466;2022-08-21T01:31:16;91620.00;;;17.30
7882;BMP180;3986;41.884;23.466;2022-08-21T01:33:44;91535.00;;;17.20
7882;BMP180;3986;41.884;23.466;2022-08-21T01:36:12;91618.00;;;17.20
7882;BMP180;3986;41.884;23.466;2022-08-21T01:38:39;91614.00;;;17.30
7882;BMP180;3986;41.884;23.466;2022-08-21T01:41:05;91610.00;;;17.80
7882;BMP180;3986;41.884;23.466;2022-08-21T01:43:32;91615.00;;;17.90
7882;BMP180;3986;41.884;23.466;2022-08-21T01:45:59;91616.00;;;17.60
7882;BMP180;3986;41.884;23.466;2022-08-21T01:48:26;91621.00;;;17.50
7882;BMP180;3986;41.884;23.466;2022-08-21T01:50:53;91624.00;;;17.20
7882;BMP180;3986;41.884;23.466;2022-08-21T01:53:21;91616.00;;;16.80
7882;BMP180;3986;41.884;23.466;2022-08-21T01:55:48;91609.00;;;17.00
7882;BMP180;3986;41.884;23.466;2022-08-21T01:58:15;91615.00;;;17.40
7882;BMP180;3986;41.884;23.466;2022-08-21T02:00:41;91613.00;;;17.50
7882;BMP180;3986;41.884;23.466;2022-08-21T02:03:08;91603.00;;;17.80
7882;BMP180;3986;41.884;23.466;2022-08-21T02:05:35;91604.00;;;17.50
7882;BMP180;3986;41.884;23.466;2022-08-21T02:08:02;91605.00;;;17.60
7882;BMP180;3986;41.884;23.466;2022-08-21T02:10:31;91605.00;;;17.50
7882;BMP180;3986;41.884;23.466;2022-08-21T02:12:59;91606.00;;;17.60
7882;BMP180;3986;41.884;23.466;2022-08-21T02:15:26;91607.00;;;17.20
7882;BMP180;3986;41.884;23.466;2022-08-21T02:17:56;91613.00;;;17.00
7882;BMP180;3986;41.884;23.466;2022-08-21T02:20:25;91624.00;;;17.40
7882;BMP180;3986;41.884;23.466;2022-08-21T02:22:53;91606.00;;;17.90
7882;BMP180;3986;41.884;23.466;2022-08-21T02:25:22;91615.00;;;18.00
7882;BMP180;3986;41.884;23.466;2022-08-21T02:27:51;91627.00;;;17.50
7882;BMP180;3986;41.884;23.466;2022-08-21T02:30:20;91619.00;;;17.70
7882;BMP180;3986;41.884;23.466;2022-08-21T02:32:47;91608.00;;;17.70
7882;BMP180;3986;41.884;23.466;2022-08-21T02:35:14;91593.00;;;18.00
7882;BMP180;3986;41.884;23.466;2022-08-21T02:37:48;91601.00;;;18.00
7882;BMP180;3986;41.884;23.466;2022-08-21T02:40:17;91607.00;;;17.80
7882;BMP180;3986;41.884;23.466;2022-08-21T02:42:44;91596.00;;;18.10
7882;BMP180;3986;41.884;23.466;2022-08-21T02:45:17;91601.00;;;18.40
7882;BMP180;3986;41.884;23.466;2022-08-21T02:47:47;91600.00;;;18.00
7882;BMP180;3986;41.884;23.466;2022-08-21T02:50:18;91603.00;;;18.20
7882;BMP180;3986;41.884;23.466;2022-08-21T02:52:45;91601.00;;;18.00
7882;BMP180;3986;41.884;23.466;2022-08-21T02:55:12;91605.00;;;17.90
7882;BMP180;3986;41.884;23.466;2022-08-21T02:57:39;91601.00;;;17.70
7882;BMP180;3986;41.884;23.466;2022-08-21T03:00:07;91605.00;;;17.50
7882;BMP180;3986;41.884;23.466;2022-08-21T03:02:36;91602.00;;;17.80
7882;BMP180;3986;41.884;23.466;2022-08-21T03:05:04;91601.00;;;18.10
7882;BMP180;3986;41.884;23.466;2022-08-21T03:07:30;91601.00;;;18.00
7882;BMP180;3986;41.884;23.466;2022-08-21T03:09:57;91604.00;;;17.90
7882;BMP180;3986;41.884;23.466;2022-08-21T03:12:24;91604.00;;;17.80
7882;BMP180;3986;41.884;23.466;2022-08-21T03:14:51;91609.00;;;17.80
7882;BMP180;3986;41.884;23.466;2022-08-21T03:17:18;91613.00;;;17.10
7882;BMP180;3986;41.884;23.466;2022-08-21T03:19:46;91629.00;;;17.30
7882;BMP180;3986;41.884;23.466;2022-08-21T03:22:13;91624.00;;;17.50
7882;BMP180;3986;41.884;23.466;2022-08-21T03:24:40;91623.00;;;17.60
7882;BMP180;3986;41.884;23.466;2022-08-21T03:27:06;91616.00;;;17.70
7882;BMP180;3986;41.884;23.466;2022-08-21T03:29:33;91618.00;;;18.00
7882;BMP180;3986;41.884;23.466;2022-08-21T03:32:00;91628.00;;;17.90
7882;BMP180;3986;41.884;23.466;2022-08-21T03:34:27;91626.00;;;17.60
7882;BMP180;3986;41.884;23.466;2022-08-21T03:36:55;91631.00;;;17.60
7882;BMP180;3986;41.884;23.466;2022-08-21T03:39:22;91629.00;;;17.90
7882;BMP180;3986;41.884;23.466;2022-08-21T03:41:49;91624.00;;;17.90
7882;BMP180;3986;41.884;23.466;2022-08-21T03:44:16;91626.00;;;18.00
7882;BMP180;3986;41.884;23.466;2022-08-21T03:46:43;91638.00;;;17.50
7882;BMP180;3986;41.884;23.466;2022-08-21T03:49:09;91643.00;;;17.50
7882;BMP180;3986;41.884;23.466;2022-08-21T03:51:37;91638.00;;;17.30
7882;BMP180;3986;41.884;23.466;2022-08-21T03:54:05;91643.00;;;17.70
7882;BMP180;3986;41.884;23.466;2022-08-21T03:56:32;91643.00;;;17.80
7882;BMP180;3986;41.884;23.466;2022-08-21T03:58:59;91629.00;;;17.70
7882;BMP180;3986;41.884;23.466;2022-08-21T04:01:27;91628.00;;;17.80
7882;BMP180;3986;41.884;23.466;2022-08-21T04:03:54;91631.00;;;17.90
7882;BMP180;3986;41.884;23.466;2022-08-21T04:06:21;91601.00;;;17.50
7882;BMP180;3986;41.884;23.466;2022-08-21T04:08:48;91652.00;;;17.40
7882;BMP180;3986;41.884;23.466;2022-08-21T04:11:16;91650.00;;;17.40
7882;BMP180;3986;41.884;23.466;2022-08-21T04:13:43;91639.00;;;17.60
7882;BMP180;3986;41.884;23.466;2022-08-21T04:16:09;91641.00;;;17.70
7882;BMP180;3986;41.884;23.466;2022-08-21T04:18:36;91650.00;;;17.40
7882;BMP180;3986;41.884;23.466;2022-08-21T04:21:03;91651.00;;;17.30
7882;BMP180;3986;41.884;23.466;2022-08-21T04:23:30;91651.00;;;17.20
7882;BMP180;3986;41.884;23.466;2022-08-21T04:25:58;91663.00;;;17.30
7882;BMP180;3986;41.884;23.466;2022-08-21T04:28:26;91642.00;;;17.40
7882;BMP180;3986;41.884;23.466;2022-08-21T04:30:54;91644.00;;;17.50
7882;BMP180;3986;41.884;23.466;2022-08-21T04:33:21;91645.00;;;17.70
7882;BMP180;3986;41.884;23.466;2022-08-21T04:35:50;91657.00;;;17.40
7882;BMP180;3986;41.884;23.466;2022-08-21T04:38:17;91647.00;;;17.10
7882;BMP180;3986;41.884;23.466;2022-08-21T04:40:44;91649.00;;;17.30
7882;BMP180;3986;41.884;23.466;2022-08-21T04:43:11;91647.00;;;17.50
7882;BMP180;3986;41.884;23.466;2022-08-21T04:45:41;91640.00;;;17.50
7882;BMP180;3986;41.884;23.466;2022-08-21T04:48:10;91651.00;;;17.70
7882;BMP180;3986;41.884;23.466;2022-08-21T04:50:41;91658.00;;;17.40
7882;BMP180;3986;41.884;23.466;2022-08-21T04:53:11;91654.00;;;17.40
7882;BMP180;3986;41.884;23.466;2022-08-21T04:55:39;91663.00;;;17.60
7882;BMP180;3986;41.884;23.466;2022-08-21T04:58:08;91653.00;;;17.70
7882;BMP180;3986;41.884;23.466;2022-08-21T05:00:37;91660.00;;;17.90
7882;BMP180;3986;41.884;23.466;2022-08-21T05:03:06;91663.00;;;18.40
7882;BMP180;3986;41.884;23.466;2022-08-21T05:05:34;91663.00;;;18.40
7882;BMP180;3986;41.884;23.466;2022-08-21T05:08:02;91668.00;;;17.90
7882;BMP180;3986;41.884;23.466;2022-08-21T05:10:29;91660.00;;;17.60
7882;BMP180;3986;41.884;23.466;2022-08-21T05:12:58;91662.00;;;17.60
7882;BMP180;3986;41.884;23.466;2022-08-21T05:15:25;91665.00;;;18.00
7882;BMP180;3986;41.884;23.466;2022-08-21T05:17:52;91660.00;;;17.60
7882;BMP180;3986;41.884;23.466;2022-08-21T05:20:20;91652.00;;;17.80
7882;BMP180;3986;41.884;23.466;2022-08-21T05:22:47;91648.00;;;18.20
7882;BMP180;3986;41.884;23.466;2022-08-21T05:25:14;91636.00;;;18.20
7882;BMP180;3986;41.884;23.466;2022-08-21T05:27:40;91644.00;;;17.70
7882;BMP180;3986;41.884;23.466;2022-08-21T05:30:09;91640.00;;;17.50
7882;BMP180;3986;41.884;23.466;2022-08-21T05:32:36;91631.00;;;17.80
7882;BMP180;3986;41.884;23.466;2022-08-21T05:35:04;91640.00;;;17.90
7882;BMP180;3986;41.884;23.466;2022-08-21T05:37:33;91623.00;;;17.70
7882;BMP180;3986;41.884;23.466;2022-08-21T05:40:00;91601.00;;;17.70
7882;BMP180;3986;41.884;23.466;2022-08-21T05:42:27;91640.00;;;17.90
7882;BMP180;3986;41.884;23.466;2022-08-21T05:44:54;91634.00;;;17.00
7882;BMP180;3986;41.884;23.466;2022-08-21T05:47:21;91636.00;;;17.60
7882;BMP180;3986;41.884;23.466;2022-08-21T05:49:48;91641.00;;;18.10
7882;BMP180;3986;41.884;23.466;2022-08-21T05:52:18;91644.00;;;17.90
7882;BMP180;3986;41.884;23.466;2022-08-21T05:54:47;91634.00;;;18.00
7882;BMP180;3986;41.884;23.466;2022-08-21T05:57:13;91633.00;;;18.20
7882;BMP180;3986;41.884;23.466;2022-08-21T05:59:40;91622.00;;;18.10
7882;BMP180;3986;41.884;23.466;2022-08-21T06:02:07;91624.00;;;18.40
7882;BMP180;3986;41.884;23.466;2022-08-21T06:04:35;91616.00;;;18.80
7882;BMP180;3986;41.884;23.466;2022-08-21T06:07:03;91621.00;;;18.90
7882;BMP180;3986;41.884;23.466;2022-08-21T06:09:30;91625.00;;;18.60
7882;BMP180;3986;41.884;23.466;2022-08-21T06:12:02;91626.00;;;18.40
7882;BMP180;3986;41.884;23.466;2022-08-21T06:14:29;91621.00;;;18.10
7882;BMP180;3986;41.884;23.466;2022-08-21T06:17:01;91627.00;;;18.40
7882;BMP180;3986;41.884;23.466;2022-08-21T06:19:28;91623.00;;;18.30
7882;BMP180;3986;41.884;23.466;2022-08-21T06:21:55;91608.00;;;18.20
7882;BMP180;3986;41.884;23.466;2022-08-21T06:24:22;91616.00;;;18.60
7882;BMP180;3986;41.884;23.466;2022-08-21T06:26:49;91619.00;;;18.10
7882;BMP180;3986;41.884;23.466;2022-08-21T06:29:17;91580.00;;;18.60
7882;BMP180;3986;41.884;23.466;2022-08-21T06:31:46;91613.00;;;18.70
7882;BMP180;3986;41.884;23.466;2022-08-21T06:34:13;91630.00;;;19.00
7882;BMP180;3986;41.884;23.466;2022-08-21T06:36:40;91623.00;;;19.10
7882;BMP180;3986;41.884;23.466;2022-08-21T06:39:07;91617.00;;;19.40
7882;BMP180;3986;41.884;23.466;2022-08-21T06:41:33;91616.00;;;19.40
7882;BMP180;3986;41.884;23.466;2022-08-21T06:44:00;91627.00;;;19.50
7882;BMP180;3986;41.884;23.466;2022-08-21T06:46:29;91616.00;;;19.50
7882;BMP180;3986;41.884;23.466;2022-08-21T06:48:57;91570.00;;;19.70
7882;BMP180;3986;41.884;23.466;2022-08-21T06:51:24;91627.00;;;19.90
7882;BMP180;3986;41.884;23.466;2022-08-21T06:53:52;91615.00;;;19.90
7882;BMP180;3986;41.884;23.466;2022-08-21T06:56:19;91580.00;;;20.80
7882;BMP180;3986;41.884;23.466;2022-08-21T06:58:46;91613.00;;;21.30
7882;BMP180;3986;41.884;23.466;2022-08-21T07:01:25;91618.00;;;21.30
7882;BMP180;3986;41.884;23.466;2022-08-21T07:03:54;91506.00;;;21.70
7882;BMP180;3986;41.884;23.466;2022-08-21T07:06:20;91605.00;;;21.60
7882;BMP180;3986;41.884;23.466;2022-08-21T07:08:47;91603.00;;;21.70
7882;BMP180;3986;41.884;23.466;2022-08-21T07:11:20;91577.00;;;21.20
7882;BMP180;3986;41.884;23.466;2022-08-21T07:13:48;91597.00;;;21.20
7882;BMP180;3986;41.884;23.466;2022-08-21T07:16:16;91596.00;;;21.00
7882;BMP180;3986;41.884;23.466;2022-08-21T07:18:43;91597.00;;;20.70
7882;BMP180;3986;41.884;23.466;2022-08-21T07:21:11;91595.00;;;21.30
7882;BMP180;3986;41.884;23.466;2022-08-21T07:23:40;91588.00;;;21.40
7882;BMP180;3986;41.884;23.466;2022-08-21T07:26:08;91603.00;;;21.70
7882;BMP180;3986;41.884;23.466;2022-08-21T07:28:35;91608.00;;;21.90
7882;BMP180;3986;41.884;23.466;2022-08-21T07:31:02;91604.00;;;22.10
7882;BMP180;3986;41.884;23.466;2022-08-21T07:33:31;91595.00;;;22.20
7882;BMP180;3986;41.884;23.466;2022-08-21T07:35:59;91614.00;;;22.50
7882;BMP180;3986;41.884;23.466;2022-08-21T07:38:27;91601.00;;;22.00
7882;BMP180;3986;41.884;23.466;2022-08-21T07:40:55;91595.00;;;21.70
7882;BMP180;3986;41.884;23.466;2022-08-21T07:43:24;91588.00;;;21.50
7882;BMP180;3986;41.884;23.466;2022-08-21T07:45:51;91583.00;;;22.40
7882;BMP180;3986;41.884;23.466;2022-08-21T07:48:18;91590.00;;;22.30
7882;BMP180;3986;41.884;23.466;2022-08-21T07:50:45;91591.00;;;21.90
7882;BMP180;3986;41.884;23.466;2022-08-21T07:53:12;91586.00;;;21.90
7882;BMP180;3986;41.884;23.466;2022-08-21T07:55:41;91586.00;;;21.90
7882;BMP180;3986;41.884;23.466;2022-08-21T07:58:08;91587.00;;;22.10
7882;BMP180;3986;41.884;23.466;2022-08-21T08:00:35;91585.00;;;22.40
7882;BMP180;3986;41.884;23.466;2022-08-21T08:03:02;91575.00;;;22.40
7882;BMP180;3986;41.884;23.466;2022-08-21T08:05:31;91601.00;;;21.00
7882;BMP180;3986;41.884;23.466;2022-08-21T08:07:58;91584.00;;;21.40
7882;BMP180;3986;41.884;23.466;2022-08-21T08:10:25;91579.00;;;20.80
7882;BMP180;3986;41.884;23.466;2022-08-21T08:12:54;91578.00;;;21.10
7882;BMP180;3986;41.884;23.466;2022-08-21T08:15:23;91576.00;;;21.80
7882;BMP180;3986;41.884;23.466;2022-08-21T08:17:51;91583.00;;;22.50
7882;BMP180;3986;41.884;23.466;2022-08-21T08:20:18;91571.00;;;22.00
7882;BMP180;3986;41.884;23.466;2022-08-21T08:22:46;91581.00;;;21.80
7882;BMP180;3986;41.884;23.466;2022-08-21T08:25:14;91586.00;;;21.50
7882;BMP180;3986;41.884;23.466;2022-08-21T08:27:41;91539.00;;;22.10
7882;BMP180;3986;41.884;23.466;2022-08-21T08:30:12;91570.00;;;22.70
7882;BMP180;3986;41.884;23.466;2022-08-21T08:32:40;91573.00;;;23.00
7882;BMP180;3986;41.884;23.466;2022-08-21T08:35:08;91576.00;;;22.10
7882;BMP180;3986;41.884;23.466;2022-08-21T08:37:36;91570.00;;;22.20
7882;BMP180;3986;41.884;23.466;2022-08-21T08:40:06;91579.00;;;22.10
7882;BMP180;3986;41.884;23.466;2022-08-21T08:42:35;91571.00;;;22.20
7882;BMP180;3986;41.884;23.466;2022-08-21T08:45:05;91573.00;;;22.30
7882;BMP180;3986;41.884;23.466;2022-08-21T08:47:36;91570.00;;;21.30
7882;BMP180;3986;41.884;23.466;2022-08-21T08:50:06;91484.00;;;21.80
7882;BMP180;3986;41.884;23.466;2022-08-21T08:52:41;91567.00;;;21.60
7882;BMP180;3986;41.884;23.466;2022-08-21T08:55:13;91581.00;;;22.00
7882;BMP180;3986;41.884;23.466;2022-08-21T08:57:44;91563.00;;;21.70
7882;BMP180;3986;41.884;23.466;2022-08-21T09:00:15;91570.00;;;20.70
7882;BMP180;3986;41.884;23.466;2022-08-21T09:02:45;91567.00;;;20.30
7882;BMP180;3986;41.884;23.466;2022-08-21T09:05:20;91477.00;;;20.30
7882;BMP180;3986;41.884;23.466;2022-08-21T09:08:00;91564.00;;;20.90
7882;BMP180;3986;41.884;23.466;2022-08-21T09:10:39;91560.00;;;21.60
7882;BMP180;3986;41.884;23.466;2022-08-21T09:13:15;91554.00;;;22.30
7882;BMP180;3986;41.884;23.466;2022-08-21T09:15:53;91545.00;;;22.80
7882;BMP180;3986;41.884;23.466;2022-08-21T09:18:30;91551.00;;;21.90
7882;BMP180;3986;41.884;23.466;2022-08-21T09:21:07;91553.00;;;22.10
7882;BMP180;3986;41.884;23.466;2022-08-21T09:23:42;91554.00;;;21.70
7882;BMP180;3986;41.884;23.466;2022-08-21T09:26:13;91553.00;;;21.30
7882;BMP180;3986;41.884;23.466;2022-08-21T09:28:40;91538.00;;;21.50
7882;BMP180;3986;41.884;23.466;2022-08-21T09:31:14;91535.00;;;22.70
7882;BMP180;3986;41.884;23.466;2022-08-21T09:33:43;91539.00;;;23.90
7882;BMP180;3986;41.884;23.466;2022-08-21T09:36:10;91535.00;;;24.10
7882;BMP180;3986;41.884;23.466;2022-08-21T09:38:37;91537.00;;;24.30
7882;BMP180;3986;41.884;23.466;2022-08-21T09:41:07;91546.00;;;27.10
7882;BMP180;3986;41.884;23.466;2022-08-21T09:43:35;91539.00;;;29.70
7882;BMP180;3986;41.884;23.466;2022-08-21T09:46:09;91546.00;;;29.40
7882;BMP180;3986;41.884;23.466;2022-08-21T09:48:44;91544.00;;;25.50
7882;BMP180;3986;41.884;23.466;2022-08-21T09:51:14;91534.00;;;26.10
7882;BMP180;3986;41.884;23.466;2022-08-21T09:53:45;91535.00;;;25.60
7882;BMP180;3986;41.884;23.466;2022-08-21T09:56:19;91539.00;;;27.60
7882;BMP180;3986;41.884;23.466;2022-08-21T09:59:14;91539.00;;;31.70
7882;BMP180;3986;41.884;23.466;2022-08-21T10:01:46;91544.00;;;34.80
7882;BMP180;3986;41.884;23.466;2022-08-21T10:04:15;91531.00;;;31.60
7882;BMP180;3986;41.884;23.466;2022-08-21T10:06:45;91523.00;;;28.40
7882;BMP180;3986;41.884;23.466;2022-08-21T10:09:13;91523.00;;;27.60
7882;BMP180;3986;41.884;23.466;2022-08-21T10:11:45;91524.00;;;27.70
7882;BMP180;3986;41.884;23.466;2022-08-21T10:14:19;91523.00;;;27.30
7882;BMP180;3986;41.884;23.466;2022-08-21T10:16:59;91523.00;;;25.40
7882;BMP180;3986;41.884;23.466;2022-08-21T10:19:37;91528.00;;;25.10
7882;BMP180;3986;41.884;23.466;2022-08-21T10:22:19;91529.00;;;23.80
7882;BMP180;3986;41.884;23.466;2022-08-21T10:24:58;91536.00;;;24.40
7882;BMP180;3986;41.884;23.466;2022-08-21T10:27:35;91537.00;;;23.40
7882;BMP180;3986;41.884;23.466;2022-08-21T10:30:08;91538.00;;;23.30
7882;BMP180;3986;41.884;23.466;2022-08-21T10:32:59;91532.00;;;23.90
7882;BMP180;3986;41.884;23.466;2022-08-21T10:35:32;91534.00;;;23.50
7882;BMP180;3986;41.884;23.466;2022-08-21T10:38:34;91548.00;;;23.10
7882;BMP180;3986;41.884;23.466;2022-08-21T10:41:09;91538.00;;;22.90
7882;BMP180;3986;41.884;23.466;2022-08-21T10:43:44;91524.00;;;23.40
7882;BMP180;3986;41.884;23.466;2022-08-21T10:46:21;91502.00;;;24.40
7882;BMP180;3986;41.884;23.466;2022-08-21T10:48:56;91511.00;;;27.60
7882;BMP180;3986;41.884;23.466;2022-08-21T10:51:31;91523.00;;;27.10
7882;BMP180;3986;41.884;23.466;2022-08-21T10:54:05;91525.00;;;26.10
7882;BMP180;3986;41.884;23.466;2022-08-21T10:56:36;91540.00;;;24.00
7882;BMP180;3986;41.884;23.466;2022-08-21T10:59:24;91528.00;;;22.40
7882;BMP180;3986;41.884;23.466;2022-08-21T11:01:57;91529.00;;;22.50
7882;BMP180;3986;41.884;23.466;2022-08-21T11:04:28;91521.00;;;22.60
7882;BMP180;3986;41.884;23.466;2022-08-21T11:07:02;91512.00;;;23.20
7882;BMP180;3986;41.884;23.466;2022-08-21T11:09:31;91514.00;;;22.20
7882;BMP180;3986;41.884;23.466;2022-08-21T11:12:03;91510.00;;;21.90
7882;BMP180;3986;41.884;23.466;2022-08-21T11:14:39;91510.00;;;21.50
7882;BMP180;3986;41.884;23.466;2022-08-21T11:17:09;91517.00;;;21.20
7882;BMP180;3986;41.884;23.466;2022-08-21T11:19:43;91514.00;;;21.20
7882;BMP180;3986;41.884;23.466;2022-08-21T11:22:18;91500.00;;;21.50
7882;BMP180;3986;41.884;23.466;2022-08-21T11:24:51;91499.00;;;21.30
7882;BMP180;3986;41.884;23.466;2022-08-21T11:27:24;91511.00;;;20.70
7882;BMP180;3986;41.884;23.466;2022-08-21T11:29:54;91492.00;;;20.60
7882;BMP180;3986;41.884;23.466;2022-08-21T11:32:36;91515.00;;;20.20
7882;BMP180;3986;41.884;23.466;2022-08-21T11:35:11;91514.00;;;20.30
7882;BMP180;3986;41.884;23.466;2022-08-21T11:37:48;91440.00;;;20.40
7882;BMP180;3986;41.884;23.466;2022-08-21T11:40:31;91515.00;;;20.50
7882;BMP180;3986;41.884;23.466;2022-08-21T11:43:09;91515.00;;;20.00
7882;BMP180;3986;41.884;23.466;2022-08-21T11:45:43;91518.00;;;20.00
7882;BMP180;3986;41.884;23.466;2022-08-21T11:48:16;91532.00;;;20.00
7882;BMP180;3986;41.884;23.466;2022-08-21T11:50:49;91522.00;;;19.50
7882;BMP180;3986;41.884;23.466;2022-08-21T11:53:21;91526.00;;;19.40
7882;BMP180;3986;41.884;23.466;2022-08-21T11:55:55;91525.00;;;19.40
7882;BMP180;3986;41.884;23.466;2022-08-21T11:58:27;91522.00;;;19.30
7882;BMP180;3986;41.884;23.466;2022-08-21T12:00:58;91508.00;;;19.50
7882;BMP180;3986;41.884;23.466;2022-08-21T12:03:29;91521.00;;;19.70
7882;BMP180;3986;41.884;23.466;2022-08-21T12:06:00;91512.00;;;20.10
7882;BMP180;3986;41.884;23.466;2022-08-21T12:08:31;91511.00;;;19.80
7882;BMP180;3986;41.884;23.466;2022-08-21T12:11:02;91508.00;;;20.20
7882;BMP180;3986;41.884;23.466;2022-08-21T12:13:31;91466.00;;;20.20
7882;BMP180;3986;41.884;23.466;2022-08-21T12:16:06;91498.00;;;20.10
7882;BMP180;3986;41.884;23.466;2022-08-21T12:18:33;91502.00;;;19.50
7882;BMP180;3986;41.884;23.466;2022-08-21T12:21:20;91504.00;;;19.60
7882;BMP180;3986;41.884;23.466;2022-08-21T12:23:59;91499.00;;;19.60
7882;BMP180;3986;41.884;23.466;2022-08-21T12:26:28;91503.00;;;20.00
7882;BMP180;3986;41.884;23.466;2022-08-21T12:29:13;91513.00;;;20.10
7882;BMP180;3986;41.884;23.466;2022-08-21T12:31:57;91510.00;;;20.20
7882;BMP180;3986;41.884;23.466;2022-08-21T12:34:35;91515.00;;;20.30
7882;BMP180;3986;41.884;23.466;2022-08-21T12:37:04;91512.00;;;20.60
7882;BMP180;3986;41.884;23.466;2022-08-21T12:39:36;91512.00;;;20.90
7882;BMP180;3986;41.884;23.466;2022-08-21T12:42:07;91507.00;;;20.80
7882;BMP180;3986;41.884;23.466;2022-08-21T12:44:42;91505.00;;;20.90
7882;BMP180;3986;41.884;23.466;2022-08-21T12:47:15;91505.00;;;20.30
7882;BMP180;3986;41.884;23.466;2022-08-21T12:50:02;91408.00;;;20.70
7882;BMP180;3986;41.884;23.466;2022-08-21T12:52:33;91487.00;;;20.90
7882;BMP180;3986;41.884;23.466;2022-08-21T12:55:02;91504.00;;;20.90
7882;BMP180;3986;41.884;23.466;2022-08-21T12:57:29;91502.00;;;21.00
7882;BMP180;3986;41.884;23.466;2022-08-21T12:59:58;91516.00;;;20.00
7882;BMP180;3986;41.884;23.466;2022-08-21T13:02:29;91517.00;;;20.70
7882;BMP180;3986;41.884;23.466;2022-08-21T13:04:58;91526.00;;;20.30
7882;BMP180;3986;41.884;23.466;2022-08-21T13:07:29;91513.00;;;20.20
7882;BMP180;3986;41.884;23.466;2022-08-21T13:09:59;91509.00;;;20.70
7882;BMP180;3986;41.884;23.466;2022-08-21T13:12:28;91510.00;;;20.70
7882;BMP180;3986;41.884;23.466;2022-08-21T13:14:56;91509.00;;;20.70
7882;BMP180;3986;41.884;23.466;2022-08-21T13:17:24;91505.00;;;21.00
7882;BMP180;3986;41.884;23.466;2022-08-21T13:19:56;91515.00;;;21.40
7882;BMP180;3986;41.884;23.466;2022-08-21T13:22:24;91524.00;;;21.00
7882;BMP180;3986;41.884;23.466;2022-08-21T13:24:51;91510.00;;;20.70
7882;BMP180;3986;41.884;23.466;2022-08-21T13:27:22;91513.00;;;21.00
7882;BMP180;3986;41.884;23.466;2022-08-21T13:30:04;91519.00;;;20.80
7882;BMP180;3986;41.884;23.466;2022-08-21T13:32:34;91530.00;;;20.90
7882;BMP180;3986;41.884;23.466;2022-08-21T13:35:15;91519.00;;;20.30
7882;BMP180;3986;41.884;23.466;2022-08-21T13:37:43;91516.00;;;20.10
7882;BMP180;3986;41.884;23.466;2022-08-21T13:40:14;91512.00;;;20.00
7882;BMP180;3986;41.884;23.466;2022-08-21T13:42:43;91504.00;;;20.60
7882;BMP180;3986;41.884;23.466;2022-08-21T13:45:16;91431.00;;;20.90
7882;BMP180;3986;41.884;23.466;2022-08-21T13:47:45;91508.00;;;20.20
7882;BMP180;3986;41.884;23.466;2022-08-21T13:50:15;91502.00;;;20.30
7882;BMP180;3986;41.884;23.466;2022-08-21T13:52:56;91512.00;;;20.50
7882;BMP180;3986;41.884;23.466;2022-08-21T13:55:23;91505.00;;;20.80
7882;BMP180;3986;41.884;23.466;2022-08-21T13:57:59;91472.00;;;21.30
7882;BMP180;3986;41.884;23.466;2022-08-21T14:00:29;91483.00;;;21.50
7882;BMP180;3986;41.884;23.466;2022-08-21T14:03:03;91500.00;;;20.90
7882;BMP180;3986;41.884;23.466;2022-08-21T14:05:34;91484.00;;;20.50
7882;BMP180;3986;41.884;23.466;2022-08-21T14:08:04;91500.00;;;20.70
7882;BMP180;3986;41.884;23.466;2022-08-21T14:10:35;91498.00;;;21.40
7882;BMP180;3986;41.884;23.466;2022-08-21T14:13:05;91512.00;;;21.70
7882;BMP180;3986;41.884;23.466;2022-08-21T14:15:35;91493.00;;;22.00
7882;BMP180;3986;41.884;23.466;2022-08-21T14:18:13;91485.00;;;22.20
7882;BMP180;3986;41.884;23.466;2022-08-21T14:20:41;91435.00;;;21.30
7882;BMP180;3986;41.884;23.466;2022-08-21T14:23:07;91502.00;;;20.80
7882;BMP180;3986;41.884;23.466;2022-08-21T14:25:40;91489.00;;;20.60
7882;BMP180;3986;41.884;23.466;2022-08-21T14:28:15;91483.00;;;20.90
7882;BMP180;3986;41.884;23.466;2022-08-21T14:30:47;91496.00;;;21.30
7882;BMP180;3986;41.884;23.466;2022-08-21T14:33:23;91473.00;;;21.70
7882;BMP180;3986;41.884;23.466;2022-08-21T14:35:51;91484.00;;;21.90
7882;BMP180;3986;41.884;23.466;2022-08-21T14:38:20;91487.00;;;22.00